Time;durP1;ratioP1;P1;durP2;ratioP2;P2;SDS_P1;SDS_P2;PMS_P1;PMS_P2;Temp;Humidity;BMP_temperature;BMP_pressure;BME280_temperature;BME280_humidity;BME280_pressure;Samples;Min_cycle;Max_cycle;Signal;HPM_P1;HPM_P2
2022/03/02 00:02:08;;;;;;;54.75;18.60;;;;;;;-3.39;45.31;101184.22;4906102;29;20518;-78
2022/03/02 00:04:35;;;;;;;51.72;18.25;;;;;;;-3.44;45.48;101179.59;4905929;29;20039;-79
2022/03/02 00:07:01;;;;;;;52.78;17.83;;;;;;;-3.36;45.18;101192.09;4892742;29;20045;-79
2022/03/02 00:09:29;;;;;;;47.65;17.60;;;;;;;-3.39;45.47;101191.00;4906578;29;20457;-78
2022/03/02 00:11:55;;;;;;;50.83;17.17;;;;;;;-3.54;46.17;101162.81;4888864;29;20059;-81
2022/03/02 00:14:21;;;;;;;54.42;17.40;;;;;;;-3.40;45.39;101185.00;4909525;29;20503;-79
2022/03/02 00:16:48;;;;;;;42.63;18.02;;;;;;;-3.49;46.27;101184.38;4894532;29;20044;-78
2022/03/02 00:19:14;;;;;;;41.92;17.23;;;;;;;-3.43;45.83;101189.91;4908989;29;20056;-78
2022/03/02 00:21:40;;;;;;;55.55;18.75;;;;;;;-3.60;46.38;101168.38;4906141;29;20040;-78
2022/03/02 00:24:06;;;;;;;53.75;18.02;;;;;;;-3.51;46.08;101181.72;4905897;29;20502;-79
2022/03/02 00:26:32;;;;;;;44.45;17.15;;;;;;;-3.60;46.37;101172.56;4906276;29;20680;-78
2022/03/02 00:28:59;;;;;;;50.75;16.67;;;;;;;-3.69;46.11;101168.59;4909968;29;20044;-79
2022/03/02 00:31:25;;;;;;;44.95;15.85;;;;;;;-3.70;46.80;101164.28;4907999;29;20044;-79
2022/03/02 00:33:51;;;;;;;46.15;17.33;;;;;;;-3.67;46.33;101187.41;4920269;29;20052;-80
2022/03/02 00:36:18;;;;;;;44.80;16.92;;;;;;;-3.65;46.95;101187.50;4918259;29;20044;-80
2022/03/02 00:38:44;;;;;;;58.90;17.20;;;;;;;-3.70;46.69;101171.03;4909926;29;20047;-78
2022/03/02 00:41:10;;;;;;;42.75;16.40;;;;;;;-4.32;46.75;101072.56;4909280;29;20055;-78
2022/03/02 00:43:36;;;;;;;46.75;17.17;;;;;;;-3.95;47.35;101139.66;4906057;29;20076;-78
2022/03/02 00:46:04;;;;;;;57.40;18.30;;;;;;;-3.85;47.01;101158.09;4905700;29;20155;-79
2022/03/02 00:48:30;;;;;;;52.05;18.85;;;;;;;-3.77;47.11;101164.63;4909229;29;20080;-78
2022/03/02 00:50:56;;;;;;;39.10;16.48;;;;;;;-3.81;47.53;101163.53;4904509;29;20050;-80
2022/03/02 00:53:22;;;;;;;42.78;13.73;;;;;;;-3.85;47.18;101169.16;4904440;29;20066;-78
2022/03/02 00:55:48;;;;;;;36.80;14.68;;;;;;;-3.81;47.40;101170.25;4895800;29;20107;-80
2022/03/02 00:58:14;;;;;;;34.47;14.05;;;;;;;-3.76;47.78;101170.63;4907929;29;20043;-79
2022/03/02 01:00:40;;;;;;;37.00;14.68;;;;;;;-3.75;48.17;101164.75;4863796;29;20434;-80
2022/03/02 01:03:38;;;;;;;42.45;15.02;;;;;;;-3.73;47.39;101170.81;4909082;29;20060;-79
2022/03/02 01:06:05;;;;;;;37.63;14.95;;;;;;;-3.78;47.90;101168.84;4910295;29;20052;-79
2022/03/02 01:08:33;;;;;;;44.05;17.55;;;;;;;-3.94;47.64;101145.59;4908213;29;20044;-78
2022/03/02 01:11:00;;;;;;;48.60;17.88;;;;;;;-3.99;48.00;101142.75;4903378;29;20077;-79
2022/03/02 01:13:27;;;;;;;59.00;18.73;;;;;;;-3.86;48.02;101166.53;4891791;29;20044;-79
2022/03/02 01:15:53;;;;;;;51.80;16.90;;;;;;;-3.89;48.26;101151.91;4903516;29;20426;-78
2022/03/02 01:18:19;;;;;;;52.53;16.83;;;;;;;-4.07;48.72;101123.50;4875409;29;20048;-79
2022/03/02 01:20:45;;;;;;;43.05;14.20;;;;;;;-3.91;48.28;101166.19;4905958;29;20079;-79
2022/03/02 01:23:12;;;;;;;36.97;13.57;;;;;;;-4.21;48.41;101108.94;4907067;29;20814;-79
2022/03/02 01:25:38;;;;;;;37.00;12.32;;;;;;;-4.21;48.93;101083.50;4899401;29;20040;-78
2022/03/02 01:28:06;;;;;;;27.88;12.38;;;;;;;-3.94;48.33;101102.38;4906218;29;20047;-79
2022/03/02 01:30:33;;;;;;;30.02;11.57;;;;;;;-4.36;48.42;101020.66;4891817;29;20315;-79
2022/03/02 01:33:01;;;;;;;40.72;12.65;;;;;;;-4.09;48.19;101069.13;4904481;29;20052;-80
2022/03/02 01:35:27;;;;;;;33.63;11.70;;;;;;;-3.80;48.17;101114.41;4905566;29;20445;-79
2022/03/02 01:37:53;;;;;;;34.08;12.27;;;;;;;-3.55;48.52;101159.41;4876717;29;20569;-79
2022/03/02 01:40:20;;;;;;;35.30;13.02;;;;;;;-3.95;48.46;101083.69;4877827;29;20051;-79
2022/03/02 01:43:21;;;;;;;35.08;13.73;;;;;;;-4.50;48.21;100980.66;4900007;29;20075;-79
2022/03/02 01:45:47;;;;;;;34.50;11.82;;;;;;;-3.55;47.90;101143.22;4903052;29;20054;-79
2022/03/02 01:48:13;;;;;;;37.17;12.30;;;;;;;-3.77;48.13;101118.81;4908112;29;20174;-80
2022/03/02 01:50:40;;;;;;;40.65;16.00;;;;;;;-3.59;47.73;101131.06;4893019;29;20141;-78
2022/03/02 01:53:07;;;;;;;43.35;15.30;;;;;;;-3.64;47.58;101136.72;4892067;29;20043;-77
2022/03/02 01:56:02;;;;;;;;;;;;;;;;;;;;;
2022/03/02 01:58:47;;;;;;;34.75;14.18;;;;;;;-4.32;47.72;101047.16;4910028;29;20048;-82
2022/03/02 02:01:14;;;;;;;39.03;13.73;;;;;;;-4.32;47.87;101054.78;4887395;29;20061;-78
2022/03/02 02:04:23;;;;;;;36.65;14.10;;;;;;;-4.75;48.09;100992.50;4895425;29;20127;-80
2022/03/02 02:06:48;;;;;;;38.20;12.40;;;;;;;-4.19;48.15;101095.53;4907299;29;20498;-78
2022/03/02 02:09:14;;;;;;;33.03;12.65;;;;;;;-4.14;48.14;101100.97;4911015;29;20077;-78
2022/03/02 02:11:56;;;;;;;39.60;14.52;;;;;;;-4.05;48.04;101116.00;4915406;29;20047;-79
2022/03/02 02:14:22;;;;;;;39.10;14.52;;;;;;;-4.13;48.28;101106.16;4926022;29;20051;-79
2022/03/02 02:16:48;;;;;;;32.90;12.43;;;;;;;-4.44;48.43;101064.94;4926392;29;20071;-77
2022/03/02 02:19:14;;;;;;;40.35;12.88;;;;;;;-4.34;48.58;101085.19;4929649;29;20099;-79
2022/03/02 02:21:40;;;;;;;32.75;11.25;;;;;;;-4.41;48.79;101080.41;4910193;29;20048;-79
2022/03/02 02:24:07;;;;;;;24.30;9.95;;;;;;;-4.17;49.12;101088.91;4921227;29;20044;-77
2022/03/02 02:26:33;;;;;;;24.98;9.02;;;;;;;-4.13;48.69;101067.16;4902712;29;20131;-79
2022/03/02 02:28:59;;;;;;;22.17;9.63;;;;;;;-3.97;48.86;101074.22;4888234;29;20134;-78
2022/03/02 02:31:25;;;;;;;25.67;9.75;;;;;;;-3.82;48.62;101084.53;4887715;29;20165;-77
2022/03/02 02:33:52;;;;;;;31.13;8.95;;;;;;;-3.81;48.78;101076.13;4876239;29;20153;-80
2022/03/02 02:36:18;;;;;;;31.85;9.00;;;;;;;-3.69;48.51;101083.72;4861471;29;20040;-79
2022/03/02 02:38:44;;;;;;;21.20;9.27;;;;;;;-3.71;48.74;101076.00;4903973;29;20441;-78
2022/03/02 02:41:10;;;;;;;31.15;11.10;;;;;;;-3.69;48.76;101081.19;4906176;29;20552;-79
2022/03/02 02:43:42;;;;;;;47.30;12.48;;;;;;;-3.76;48.12;101068.84;4876480;29;20111;-77
2022/03/02 02:46:09;;;;;;;39.88;12.63;;;;;;;-3.73;48.26;101072.47;4877995;29;20096;-81
2022/03/02 02:48:37;;;;;;;28.05;12.20;;;;;;;-3.82;47.92;101054.91;4898004;29;20146;-80
2022/03/02 02:51:05;;;;;;;38.05;13.27;;;;;;;-3.83;48.07;101067.50;4907581;29;20146;-78
2022/03/02 02:53:31;;;;;;;35.35;14.35;;;;;;;-3.99;48.18;101046.09;4929676;29;20119;-78
2022/03/02 02:55:57;;;;;;;29.38;13.30;;;;;;;-3.95;48.25;101065.00;4888086;29;20036;-79
2022/03/02 02:58:23;;;;;;;37.38;13.82;;;;;;;-3.98;47.77;101083.47;4912547;29;20054;-78
2022/03/02 03:00:50;;;;;;;39.67;14.35;;;;;;;-4.06;48.15;101074.41;4902432;29;20059;-77
2022/03/02 03:03:17;;;;;;;41.20;14.18;;;;;;;-4.10;48.23;101077.53;4892037;29;20146;-78
2022/03/02 03:05:46;;;;;;;40.15;15.02;;;;;;;-4.13;48.42;101070.56;4912929;29;20391;-77
2022/03/02 03:08:13;;;;;;;35.85;14.35;;;;;;;-4.21;48.83;101065.72;4928435;29;21818;-78
2022/03/02 03:10:41;;;;;;;34.53;14.45;;;;;;;-4.20;48.42;101078.53;4910409;29;20068;-76
2022/03/02 03:13:08;;;;;;;32.90;13.23;;;;;;;-4.24;48.85;101069.81;4918581;29;20043;-76
2022/03/02 03:15:35;;;;;;;40.17;13.43;;;;;;;-4.36;48.42;101056.22;4918230;29;20048;-77
2022/03/02 03:18:04;;;;;;;29.42;12.23;;;;;;;-4.40;48.99;101061.88;4897305;29;20067;-79
2022/03/02 03:20:31;;;;;;;27.58;12.13;;;;;;;-4.51;48.74;101035.69;4895258;29;20074;-78
2022/03/02 03:22:57;;;;;;;28.63;11.57;;;;;;;-4.48;48.71;101046.06;4915053;29;20047;-78
2022/03/02 03:25:24;;;;;;;28.30;10.57;;;;;;;-4.45;49.10;101058.09;4942354;29;20055;-78
2022/03/02 03:27:51;;;;;;;33.80;11.85;;;;;;;-4.47;49.14;101060.53;4929242;29;20036;-79
2022/03/02 03:30:19;;;;;;;36.70;12.35;;;;;;;-4.43;48.94;101057.47;4909868;29;20040;-77
2022/03/02 03:32:45;;;;;;;32.63;11.85;;;;;;;-4.49;49.33;101038.31;4926250;29;20513;-78
2022/03/02 03:35:13;;;;;;;32.92;13.35;;;;;;;-4.50;49.44;101042.53;4911066;29;20043;-80
2022/03/02 03:37:40;;;;;;;26.15;11.70;;;;;;;-4.51;49.26;101033.13;4909787;29;20051;-80
2022/03/02 03:40:08;;;;;;;30.70;10.77;;;;;;;-4.57;49.41;101028.50;4893850;29;20039;-78
2022/03/02 03:42:34;;;;;;;23.95;10.00;;;;;;;-4.81;49.46;100997.13;4927060;29;20055;-78
2022/03/02 03:45:01;;;;;;;29.27;10.35;;;;;;;-4.62;49.39;101041.63;4913925;29;20179;-79
2022/03/02 03:47:29;;;;;;;30.10;10.98;;;;;;;-4.66;49.76;101025.28;4898137;29;20127;-77
2022/03/02 03:49:58;;;;;;;34.17;10.75;;;;;;;-4.76;49.26;101012.72;4880546;29;20044;-79
2022/03/02 03:52:25;;;;;;;29.50;10.77;;;;;;;-4.87;49.33;101001.78;4925244;29;20469;-77
2022/03/02 03:54:51;;;;;;;33.90;12.45;;;;;;;-4.75;49.60;101010.28;4912801;29;20055;-79
2022/03/02 03:57:17;;;;;;;33.47;13.43;;;;;;;-4.98;49.60;100973.06;4911534;29;20514;-78
2022/03/02 03:59:43;;;;;;;34.72;12.45;;;;;;;-4.76;49.41;101010.19;4896868;29;20044;-80
2022/03/02 04:02:12;;;;;;;34.35;12.43;;;;;;;-4.89;49.42;100998.25;4914146;29;20059;-78
2022/03/02 04:04:44;;;;;;;30.17;12.88;;;;;;;-4.58;49.44;101049.59;4902142;29;20048;-80
2022/03/02 04:07:29;;;;;;;36.53;12.52;;;;;;;-4.56;49.86;101045.53;4920915;29;20185;-77
2022/03/02 04:09:56;;;;;;;30.08;12.88;;;;;;;-4.58;49.54;101036.00;4916128;29;20043;-82
2022/03/02 04:12:22;;;;;;;32.00;13.20;;;;;;;-4.58;49.58;101048.72;4912610;29;20445;-81
2022/03/02 04:14:48;;;;;;;34.78;13.40;;;;;;;-5.54;49.87;100882.75;4889566;29;20513;-79
2022/03/02 04:17:18;;;;;;;30.30;11.77;;;;;;;-4.98;49.89;100988.31;4904318;29;20041;-78
2022/03/02 04:19:44;;;;;;;33.70;12.43;;;;;;;-5.16;50.02;100948.09;4921173;29;20070;-80
2022/03/02 04:22:21;;;;;;;32.85;12.77;;;;;;;-5.16;49.71;100947.22;4935405;29;20055;-80
2022/03/02 04:24:47;;;;;;;32.10;12.65;;;;;;;-5.23;49.58;100925.59;4932675;29;20040;-78
2022/03/02 04:27:14;;;;;;;41.45;12.43;;;;;;;-4.91;49.70;100980.34;4907859;29;20074;-79
2022/03/02 04:29:40;;;;;;;31.27;11.73;;;;;;;-4.61;49.96;101023.97;4928759;29;20048;-78
2022/03/02 04:32:06;;;;;;;24.38;11.15;;;;;;;-4.63;49.95;101005.19;4922478;29;20146;-81
2022/03/02 04:34:33;;;;;;;22.90;9.77;;;;;;;-4.34;49.85;101036.00;4914894;29;21076;-78
2022/03/02 04:36:59;;;;;;;29.00;10.68;;;;;;;-4.19;49.92;101024.34;4932667;29;20044;-80
2022/03/02 04:39:27;;;;;;;29.38;10.35;;;;;;;-3.85;49.79;101028.34;4910184;29;20150;-80
2022/03/02 04:42:06;;;;;;;26.17;10.68;;;;;;;-3.33;49.68;101016.63;4899203;29;20071;-80
2022/03/02 04:44:32;;;;;;;27.58;11.20;;;;;;;-2.35;48.70;101019.47;4909723;29;20498;-79
2022/03/02 04:46:58;;;;;;;27.08;10.75;;;;;;;-1.41;47.81;101009.84;4928461;29;20078;-78
2022/03/02 04:49:24;;;;;;;35.97;11.65;;;;;;;-0.36;47.43;101017.47;4935023;29;20541;-79
2022/03/02 04:51:50;;;;;;;32.45;12.32;;;;;;;0.38;46.01;100999.13;4910851;29;20075;-79
2022/03/02 04:57:05;;;;;;;25.13;11.05;;;;;;;2.25;44.62;100992.63;4924612;29;20044;-78
2022/03/02 04:59:31;;;;;;;26.20;12.02;;;;;;;3.10;43.47;100990.16;4912410;29;20488;-79
2022/03/02 05:01:58;;;;;;;31.48;12.52;;;;;;;3.90;42.13;100971.78;4908452;29;20063;-78
2022/03/02 05:04:24;;;;;;;36.65;13.82;;;;;;;4.79;40.82;100988.66;4897519;29;20039;-78
2022/03/02 05:06:50;;;;;;;26.65;11.63;;;;;;;5.52;40.10;100957.41;4909331;29;20051;-80
2022/03/02 05:09:16;;;;;;;32.35;12.07;;;;;;;6.29;39.05;100974.28;4914012;29;20054;-79
2022/03/02 05:11:42;;;;;;;20.65;11.70;;;;;;;6.81;38.28;100927.31;4927764;29;20046;-81
2022/03/02 05:14:08;;;;;;;27.80;11.88;;;;;;;7.76;36.36;100966.59;4913415;29;20043;-79
2022/03/02 05:16:34;;;;;;;26.58;12.27;;;;;;;8.43;35.92;100980.88;4897566;29;20044;-78
2022/03/02 05:19:00;;;;;;;28.90;11.73;;;;;;;9.00;34.60;100968.94;4909727;29;20103;-80
2022/03/02 05:21:26;;;;;;;29.63;11.95;;;;;;;9.85;34.03;100956.28;4910239;29;20052;-79
2022/03/02 05:23:53;;;;;;;30.13;11.80;;;;;;;10.78;32.89;100938.22;4898064;29;20082;-79
2022/03/02 05:26:19;;;;;;;31.15;11.60;;;;;;;11.67;31.39;100963.13;4910717;29;20141;-80
2022/03/02 05:28:58;;;;;;;;;;;;;;;;;;;;;
2022/03/02 05:31:33;;;;;;;35.10;12.38;;;;;;;13.34;29.30;100939.91;4895606;29;20036;-81
2022/03/02 05:34:06;;;;;;;26.65;12.23;;;;;;;14.19;27.94;100940.47;4910078;29;20393;-81
2022/03/02 05:36:32;;;;;;;25.38;12.25;;;;;;;14.89;27.41;100931.28;4927156;29;20055;-79
2022/03/02 05:38:58;;;;;;;27.45;11.82;;;;;;;15.66;26.01;100944.50;4913455;29;20044;-78
2022/03/02 05:41:39;;;;;;;24.30;12.27;;;;;;;16.55;25.32;100946.84;4928852;29;20040;-79
2022/03/02 05:44:13;;;;;;;29.48;12.02;;;;;;;17.33;24.75;100935.88;4908931;29;20047;-81
2022/03/02 05:46:57;;;;;;;27.65;12.73;;;;;;;17.68;23.52;100892.22;4921684;29;20039;-80
2022/03/02 05:49:23;;;;;;;26.50;12.05;;;;;;;18.54;23.12;100924.59;4908064;29;20043;-81
2022/03/02 05:51:52;;;;;;;27.38;12.07;;;;;;;18.91;22.16;100903.41;4895616;29;20045;-80
2022/03/02 05:54:18;;;;;;;25.05;12.25;;;;;;;19.37;21.34;100887.28;4910490;29;20047;-81
2022/03/02 05:56:45;;;;;;;33.60;13.20;;;;;;;20.21;20.91;100927.06;4896054;29;20498;-80
2022/03/02 05:59:14;;;;;;;29.80;15.00;;;;;;;20.77;20.41;100911.19;4910415;29;20536;-79
2022/03/02 06:01:44;;;;;;;37.38;15.43;;;;;;;21.19;19.73;100887.72;4890253;29;20157;-81
2022/03/02 06:04:16;;;;;;;53.42;22.77;;;;;;;21.99;18.74;100898.91;4909797;29;20640;-80
2022/03/02 06:06:45;;;;;;;43.53;20.95;;;;;;;22.59;18.45;100888.56;4908084;29;20035;-79
2022/03/02 06:09:12;;;;;;;33.30;13.88;;;;;;;23.21;17.61;100907.16;4914699;29;20071;-80
2022/03/02 06:11:51;;;;;;;41.65;13.63;;;;;;;23.28;17.23;100822.81;4904102;29;20047;-78
2022/03/02 06:14:24;;;;;;;24.98;12.90;;;;;;;23.88;17.20;100851.00;4935043;29;20075;-80
2022/03/02 06:16:51;;;;;;;31.33;13.68;;;;;;;24.65;16.28;100903.06;4926847;29;20542;-81
2022/03/02 06:19:30;;;;;;;29.08;13.98;;;;;;;24.53;16.07;100797.28;4893835;29;20062;-80
2022/03/02 06:22:05;;;;;;;30.08;14.05;;;;;;;25.42;15.73;100836.13;4912405;29;20052;-80
2022/03/02 06:24:32;;;;;;;26.45;12.82;;;;;;;26.07;15.17;100839.63;4914859;29;20052;-80
2022/03/02 06:27:01;;;;;;;25.65;13.70;;;;;;;26.90;14.43;100890.84;4915155;29;20069;-80
2022/03/02 06:29:28;;;;;;;33.15;13.68;;;;;;;27.13;14.19;100859.22;4915701;29;20031;-80
2022/03/02 06:31:53;;;;;;;24.83;13.70;;;;;;;27.41;13.52;100856.59;4920991;29;20084;-83
2022/03/02 06:34:19;;;;;;;21.15;13.07;;;;;;;27.83;13.30;100830.78;4951860;29;20046;-80
2022/03/02 06:36:50;;;;;;;25.33;14.40;;;;;;;28.40;13.17;100827.03;4944025;29;20039;-81
2022/03/02 06:39:18;;;;;;;41.65;15.27;;;;;;;29.14;12.91;100855.88;4932748;29;20042;-80
2022/03/02 06:42:09;;;;;;;35.53;14.68;;;;;;;29.64;12.28;100881.88;4911995;29;20514;-80
2022/03/02 06:44:55;;;;;;;21.27;13.55;;;;;;;30.15;12.48;100880.84;4917085;29;20122;-80
2022/03/02 06:47:31;;;;;;;33.15;14.25;;;;;;;30.54;11.86;100856.47;4927332;29;20040;-80
2022/03/02 06:50:06;;;;;;;30.38;14.00;;;;;;;31.07;11.76;100869.41;4908838;29;20048;-81
2022/03/02 06:52:41;;;;;;;27.17;14.63;;;;;;;31.34;11.80;100857.44;4899163;29;20043;-79
2022/03/02 06:55:12;;;;;;;29.38;14.55;;;;;;;31.90;11.04;100866.44;4912529;29;20043;-78
2022/03/02 06:57:40;;;;;;;25.63;15.00;;;;;;;32.40;10.78;100857.81;4907576;29;20047;-79
2022/03/02 07:00:18;;;;;;;20.40;13.82;;;;;;;32.81;10.64;100851.69;4906156;29;20532;-80
2022/03/02 07:02:46;;;;;;;28.27;15.15;;;;;;;33.19;10.24;100852.91;4907295;29;20095;-82
2022/03/02 07:05:15;;;;;;;28.40;15.02;;;;;;;33.45;10.57;100822.75;4909336;29;20366;-80
2022/03/02 07:07:41;;;;;;;28.08;14.20;;;;;;;33.27;9.94;100795.59;4914391;29;20410;-81
2022/03/02 07:10:18;;;;;;;25.20;15.20;;;;;;;33.10;10.21;100848.31;4909933;29;20036;-81
2022/03/02 07:12:44;;;;;;;27.17;16.80;;;;;;;32.79;9.92;100834.78;4916262;29;20047;-82
2022/03/02 07:15:14;;;;;;;30.63;16.58;;;;;;;33.29;10.13;100834.06;4910605;29;20035;-80
2022/03/02 07:17:40;;;;;;;26.77;16.13;;;;;;;33.72;9.59;100830.22;4928536;29;20046;-79
2022/03/02 07:20:16;;;;;;;25.60;15.95;;;;;;;33.84;9.39;100793.16;4908557;29;20421;-83
2022/03/02 07:22:50;;;;;;;21.95;16.00;;;;;;;33.68;9.87;100803.63;4915516;29;20056;-79
2022/03/02 07:25:29;;;;;;;22.23;15.45;;;;;;;33.98;9.27;100808.09;4912477;29;20187;-82
2022/03/02 07:28:01;;;;;;;28.42;15.68;;;;;;;34.72;9.42;100797.63;4930000;29;20058;-79
2022/03/02 07:30:31;;;;;;;19.98;13.85;;;;;;;35.13;9.21;100791.88;4902330;29;20036;-81
2022/03/02 07:33:26;;;;;;;18.73;12.95;;;;;;;35.01;8.47;100775.03;4928113;29;20060;-78
2022/03/02 07:36:01;;;;;;;17.85;11.82;;;;;;;34.92;9.33;100792.97;4929791;29;20485;-80
2022/03/02 07:38:28;;;;;;;24.33;12.20;;;;;;;35.24;8.65;100790.84;4910857;29;22378;-82
2022/03/02 07:40:54;;;;;;;18.17;11.50;;;;;;;35.88;8.71;100796.25;4913934;29;20043;-80
2022/03/02 07:43:21;;;;;;;15.80;9.65;;;;;;;36.53;8.26;100797.78;4898870;29;20528;-82
2022/03/02 07:45:47;;;;;;;22.60;11.65;;;;;;;37.07;8.04;100821.16;4899366;29;20515;-81
2022/03/02 07:48:17;;;;;;;16.23;10.15;;;;;;;37.12;8.07;100823.34;4910933;29;20086;-79
2022/03/02 07:50:46;;;;;;;16.75;9.85;;;;;;;37.42;8.00;100786.66;4907910;29;20040;-81
2022/03/02 07:53:16;;;;;;;16.77;9.38;;;;;;;37.90;7.84;100795.09;4914012;29;20178;-79
2022/03/02 07:55:44;;;;;;;14.43;8.50;;;;;;;38.50;7.68;100781.31;4910384;29;20510;-79
2022/03/02 07:58:10;;;;;;;14.00;7.95;;;;;;;39.29;7.59;100761.41;4898532;29;20493;-79
2022/03/02 08:00:37;;;;;;;14.27;9.00;;;;;;;39.51;7.13;100781.56;4909111;29;20530;-81
2022/03/02 08:03:06;;;;;;;19.83;9.05;;;;;;;39.74;7.04;100805.22;4927616;29;20043;-80
2022/03/02 08:05:33;;;;;;;19.77;9.25;;;;;;;40.24;7.41;100805.69;4926749;29;20119;-80
2022/03/02 08:08:00;;;;;;;14.80;8.02;;;;;;;40.40;7.12;100757.47;4912484;29;20051;-80
2022/03/02 08:10:26;;;;;;;10.02;7.68;;;;;;;40.66;6.82;100795.22;4913476;29;20043;-80
2022/03/02 08:12:53;;;;;;;19.85;8.80;;;;;;;40.23;7.18;100737.75;4924233;29;20452;-80
2022/03/02 08:15:20;;;;;;;13.45;7.75;;;;;;;40.38;6.65;100770.47;4910234;29;20099;-80
2022/03/02 08:17:50;;;;;;;15.00;8.15;;;;;;;40.51;7.06;100759.75;4913402;29;20040;-80
2022/03/02 08:20:16;;;;;;;16.15;7.60;;;;;;;40.03;7.03;100721.94;4898055;29;20074;-81
2022/03/02 08:22:59;;;;;;;15.10;7.93;;;;;;;40.56;6.79;100776.41;4926080;29;20048;-80
2022/03/02 08:25:36;;;;;;;14.15;7.93;;;;;;;40.08;6.46;100716.75;4897889;29;20039;-80
2022/03/02 08:28:11;;;;;;;16.02;8.50;;;;;;;39.82;6.61;100701.72;4925561;29;20134;-81
2022/03/02 08:30:53;;;;;;;14.48;7.95;;;;;;;39.92;6.93;100717.78;4908973;29;20062;-80
2022/03/02 08:33:32;;;;;;;23.38;8.25;;;;;;;39.96;6.76;100735.44;4918593;29;20075;-80
2022/03/02 08:36:03;;;;;;;22.30;8.80;;;;;;;39.78;6.76;100716.72;4922894;29;20035;-79
2022/03/02 08:38:29;;;;;;;15.88;8.00;;;;;;;40.30;6.52;100755.91;4918955;29;20032;-83
2022/03/02 08:40:55;;;;;;;12.30;7.57;;;;;;;40.44;6.87;100746.03;4897954;29;20048;-79
2022/03/02 08:43:25;;;;;;;15.02;7.93;;;;;;;40.26;6.55;100718.31;4913755;29;20055;-80
2022/03/02 08:46:00;;;;;;;13.10;6.97;;;;;;;40.16;6.96;100692.16;4926691;29;20418;-79
2022/03/02 08:48:27;;;;;;;10.38;6.20;;;;;;;40.25;6.69;100716.63;4925073;29;20050;-80
2022/03/02 08:50:59;;;;;;;11.63;6.20;;;;;;;39.72;6.58;100706.53;4914040;29;20414;-79
2022/03/02 08:53:26;;;;;;;12.13;5.45;;;;;;;40.01;6.87;100718.56;4909868;29;20540;-81
2022/03/02 08:55:55;;;;;;;10.63;5.43;;;;;;;40.00;6.60;100703.25;4911932;29;20095;-79
2022/03/02 08:58:22;;;;;;;11.23;6.40;;;;;;;40.14;6.64;100720.63;4926776;29;20048;-80
2022/03/02 09:00:51;;;;;;;12.07;6.18;;;;;;;40.38;6.50;100707.78;4897454;29;20051;-79
2022/03/02 09:03:21;;;;;;;10.23;5.63;;;;;;;40.39;6.63;100688.53;4923246;29;20178;-78
2022/03/02 09:05:56;;;;;;;6.10;3.85;;;;;;;40.26;6.40;100691.91;4893918;29;20047;-81
2022/03/02 09:08:23;;;;;;;7.85;4.80;;;;;;;40.14;6.44;100707.84;4931890;29;20043;-79
2022/03/02 09:10:49;;;;;;;5.30;3.95;;;;;;;40.04;6.77;100664.53;4911322;29;20044;-80
2022/03/02 09:13:15;;;;;;;6.57;3.42;;;;;;;39.42;6.31;100646.56;4915230;29;20071;-78
2022/03/02 09:15:42;;;;;;;4.22;2.92;;;;;;;39.52;6.62;100689.84;4931105;29;20040;-80
2022/03/02 09:18:14;;;;;;;8.13;4.65;;;;;;;39.88;6.63;100698.22;4903564;29;20032;-79
2022/03/02 09:20:49;;;;;;;10.23;4.88;;;;;;;39.66;6.66;100691.78;4905565;29;20081;-78
2022/03/02 09:23:23;;;;;;;6.78;3.80;;;;;;;39.48;6.82;100613.19;4929014;29;20043;-80
2022/03/02 09:26:26;;;;;;;3.88;3.17;;;;;;;39.17;6.42;100685.66;4939424;29;20098;-80
2022/03/02 09:28:58;;;;;;;5.90;3.38;;;;;;;38.59;6.71;100663.38;4931559;29;20044;-78
2022/03/02 09:31:46;;;;;;;8.43;3.45;;;;;;;37.91;6.77;100623.03;4926939;29;20089;-80
2022/03/02 09:34:51;;;;;;;4.85;3.38;;;;;;;38.20;6.66;100683.19;4919384;29;20051;-80
2022/03/02 09:37:18;;;;;;;11.73;5.15;;;;;;;37.52;6.83;100602.03;4912860;29;20048;-78
2022/03/02 09:39:45;;;;;;;15.98;5.20;;;;;;;38.19;7.46;100666.03;4900402;29;20072;-80
2022/03/02 09:42:40;;;;;;;11.57;5.25;;;;;;;38.16;6.82;100663.69;4916461;29;20804;-79
2022/03/02 09:45:40;;;;;;;4.55;3.40;;;;;;;37.73;7.03;100634.06;4893174;29;20125;-81
2022/03/02 09:48:24;;;;;;;11.30;4.10;;;;;;;36.95;7.15;100605.56;4874366;29;20056;-80
2022/03/02 09:50:59;;;;;;;12.88;4.70;;;;;;;37.49;7.60;100652.06;4894728;29;20051;-80
2022/03/02 09:53:40;;;;;;;8.77;4.50;;;;;;;37.94;7.24;100610.97;4926256;29;20044;-80
2022/03/02 09:57:08;;;;;;;10.25;4.70;;;;;;;37.70;7.23;100566.53;4899723;29;20052;-80
2022/03/02 10:00:15;;;;;;;7.88;4.93;;;;;;;37.81;7.20;100571.63;4925850;29;20059;-81
2022/03/02 10:03:38;;;;;;;7.68;3.85;;;;;;;37.77;7.25;100562.13;4926524;29;20044;-81
2022/03/02 10:06:21;;;;;;;8.40;3.65;;;;;;;38.34;7.49;100609.13;4913867;29;20039;-79
2022/03/02 10:08:56;;;;;;;8.63;3.38;;;;;;;37.74;6.90;100540.75;4913770;29;20071;-79
2022/03/02 10:11:33;;;;;;;5.45;2.72;;;;;;;37.67;6.87;100594.88;4938226;29;20046;-80
2022/03/02 10:14:22;;;;;;;8.32;3.45;;;;;;;36.66;7.39;100534.50;4920350;29;20123;-77
2022/03/02 10:16:52;;;;;;;4.28;2.75;;;;;;;37.08;6.91;100590.47;4951003;29;20036;-82
2022/03/02 10:19:29;;;;;;;5.88;2.92;;;;;;;36.75;7.52;100576.88;4922419;29;20082;-79
2022/03/02 10:22:46;;;;;;;8.38;3.00;;;;;;;35.21;7.06;100613.53;4947512;29;20070;-79
2022/03/02 10:25:15;;;;;;;5.00;2.75;;;;;;;31.39;8.01;100621.38;4931242;29;21071;-78
2022/03/02 10:28:04;;;;;;;4.97;2.80;;;;;;;28.01;8.74;100627.28;4931130;29;20414;-79
2022/03/02 10:30:39;;;;;;;4.32;3.00;;;;;;;25.44;9.92;100615.84;4897807;29;20394;-83
2022/03/02 10:33:20;;;;;;;3.83;2.65;;;;;;;23.40;10.71;100640.78;4929226;29;20410;-79
2022/03/02 10:36:01;;;;;;;6.65;3.38;;;;;;;21.79;11.28;100627.72;4929622;29;20051;-82
2022/03/02 10:38:59;;;;;;;6.50;2.90;;;;;;;20.15;11.95;100626.97;4930048;29;20162;-78
2022/03/02 10:41:37;;;;;;;6.10;3.08;;;;;;;18.67;12.88;100638.69;4921640;29;20047;-79
2022/03/02 10:44:05;;;;;;;6.40;2.80;;;;;;;17.77;13.67;100631.41;4929233;29;20075;-80
2022/03/02 10:46:41;;;;;;;6.38;3.05;;;;;;;17.30;14.21;100646.63;4915328;29;20051;-80
2022/03/02 10:49:17;;;;;;;5.07;2.78;;;;;;;16.64;14.54;100630.50;4916459;29;20596;-79
2022/03/02 10:51:45;;;;;;;5.43;2.70;;;;;;;16.12;15.06;100630.63;4909849;29;20103;-78
2022/03/02 10:54:20;;;;;;;7.38;2.67;;;;;;;15.53;15.26;100642.13;4928915;29;20035;-78
2022/03/02 10:56:51;;;;;;;5.65;2.50;;;;;;;14.88;15.66;100630.81;4913542;29;20118;-78
2022/03/02 10:59:22;;;;;;;7.13;2.83;;;;;;;14.30;16.02;100616.66;4911832;29;20138;-80
2022/03/02 11:01:50;;;;;;;5.50;2.40;;;;;;;13.90;16.27;100627.53;4900461;29;20071;-77
2022/03/02 11:04:21;;;;;;;6.75;2.78;;;;;;;13.47;16.36;100636.59;4912447;29;20040;-79
2022/03/02 11:06:47;;;;;;;3.67;2.50;;;;;;;12.81;16.69;100602.16;4908800;29;20047;-79
2022/03/02 11:09:16;;;;;;;4.55;2.80;;;;;;;12.69;16.84;100628.34;4915497;29;20059;-80
2022/03/02 11:11:42;;;;;;;4.72;2.60;;;;;;;12.34;17.23;100606.72;4902532;29;20043;-79
2022/03/02 11:14:09;;;;;;;3.60;2.85;;;;;;;12.32;17.40;100624.13;4932173;29;20039;-80
2022/03/02 11:16:36;;;;;;;4.80;2.22;;;;;;;12.04;17.82;100614.59;4895597;29;20437;-80
2022/03/02 11:19:15;;;;;;;3.47;1.70;;;;;;;11.77;17.61;100619.84;4909539;29;20051;-80
2022/03/02 11:21:43;;;;;;;8.88;4.07;;;;;;;11.28;17.51;100582.50;4920366;29;20043;-78
2022/03/02 11:24:15;;;;;;;2.75;1.67;;;;;;;11.14;17.42;100619.78;4927943;29;20044;-78
2022/03/02 11:26:44;;;;;;;3.70;1.77;;;;;;;10.80;17.83;100609.31;4927451;29;20130;-80
2022/03/02 11:29:17;;;;;;;6.05;2.15;;;;;;;10.82;18.23;100618.00;4899689;29;20083;-79
2022/03/02 11:31:54;;;;;;;5.63;2.08;;;;;;;10.65;18.64;100604.91;4927306;29;20040;-81
2022/03/02 11:34:24;;;;;;;8.10;2.40;;;;;;;10.62;18.39;100614.44;4879484;29;20047;-82
2022/03/02 11:36:56;;;;;;;3.95;2.25;;;;;;;10.34;18.70;100588.28;4925491;29;20062;-79
2022/03/02 11:39:24;;;;;;;4.47;2.25;;;;;;;10.26;18.65;100544.03;4907973;29;20051;-79
2022/03/02 11:41:53;;;;;;;6.63;2.58;;;;;;;10.20;18.75;100554.38;4886990;29;20039;-79